Terminal Aerodrome Forecast
Issued by NWS Wilmington, NC

Current Version | Previous Version | Text Only | Print | Product List | Glossary On
Versions: 1 2 3 4 5 6 7 8 9 10 11 12 13 14 15 16
000
FTUS42 KILM 051720
TAFLBT
TAF
KLBT 051720Z 0518/0618 15006KT P6SM FEW040 FEW250
     FM060100 VRB03KT P6SM SCT250
     FM061400 06006KT P6SM FEW040 BKN250=

USA.gov is the U.S. government's official web portal to all federal, state and local government web resources and services.